createdAt,value
2017-03-22T00:01:04.078Z,20.58
2017-03-22T00:02:13.714Z,20.5
2017-03-22T00:03:23.978Z,20.52
2017-03-22T00:04:33.926Z,20.55
2017-03-22T00:05:44.182Z,20.58
2017-03-22T00:06:54.118Z,20.54
2017-03-22T00:08:04.061Z,20.55
2017-03-22T00:09:14.316Z,20.55
2017-03-22T00:10:24.260Z,20.55
2017-03-22T00:11:34.515Z,20.58
2017-03-22T00:12:44.775Z,20.57
2017-03-22T00:13:54.728Z,20.47
2017-03-22T00:15:04.363Z,20.5
2017-03-22T00:16:14.303Z,20.5
2017-03-22T00:17:24.264Z,20.5
2017-03-22T00:18:34.212Z,20.55
2017-03-22T00:19:44.156Z,20.54
2017-03-22T00:20:54.415Z,20.52
2017-03-22T00:22:04.359Z,20.48
2017-03-22T00:23:14.621Z,20.48
2017-03-22T00:24:24.570Z,20.47
2017-03-22T00:25:34.518Z,20.54
2017-03-22T00:26:44.784Z,20.55
2017-03-22T00:27:54.741Z,20.47
2017-03-22T00:29:04.694Z,20.61
2017-03-22T00:30:14.643Z,20.48
2017-03-22T00:31:24.897Z,20.51
2017-03-22T00:32:35.150Z,20.42
2017-03-22T00:33:45.414Z,20.47
2017-03-22T00:34:55.675Z,20.5
2017-03-22T00:36:05.630Z,20.48
2017-03-22T00:37:15.891Z,20.43
2017-03-22T00:38:26.156Z,20.47
2017-03-22T00:39:36.106Z,20.48
2017-03-22T00:40:46.047Z,20.41
2017-03-22T00:41:56.001Z,20.48
2017-03-22T00:43:06.258Z,20.43
2017-03-22T00:44:16.521Z,20.51
2017-03-22T00:45:26.147Z,20.51
2017-03-22T00:46:36.087Z,20.5
2017-03-22T00:47:46.345Z,20.51
2017-03-22T00:48:56.607Z,20.47
2017-03-22T00:50:06.551Z,20.47
2017-03-22T00:51:16.493Z,20.43
2017-03-22T00:52:26.121Z,20.43
2017-03-22T00:53:36.099Z,20.5
2017-03-22T00:54:46.043Z,20.41
2017-03-22T00:55:56.298Z,20.51
2017-03-22T00:57:05.932Z,20.52
2017-03-22T00:58:15.561Z,20.48
2017-03-22T00:59:25.823Z,20.51
2017-03-22T01:00:35.763Z,20.5
2017-03-22T01:01:45.705Z,20.43
2017-03-22T01:02:55.980Z,20.5
2017-03-22T01:04:05.938Z,20.51
2017-03-22T01:05:15.568Z,20.48
2017-03-22T01:06:25.504Z,20.41
2017-03-22T01:07:35.132Z,20.41
2017-03-22T01:08:45.398Z,20.39
2017-03-22T01:09:55.029Z,20.43
2017-03-22T01:11:04.972Z,20.43
2017-03-22T01:12:15.228Z,20.42
2017-03-22T01:13:25.181Z,20.38
2017-03-22T01:14:34.812Z,20.42
2017-03-22T01:15:45.068Z,20.38
2017-03-22T01:16:55.007Z,20.43
2017-03-22T01:18:05.259Z,20.41
2017-03-22T01:19:15.520Z,20.38
2017-03-22T01:20:25.781Z,20.39
2017-03-22T01:21:35.729Z,20.38
2017-03-22T01:22:45.992Z,20.39
2017-03-22T01:23:55.938Z,20.43
2017-03-22T01:25:05.881Z,20.42
2017-03-22T01:26:16.143Z,20.36
2017-03-22T01:27:26.436Z,20.36
2017-03-22T01:28:36.391Z,20.39
2017-03-22T01:29:46.344Z,20.36
2017-03-22T01:30:56.287Z,20.47
2017-03-22T01:32:06.544Z,20.39
2017-03-22T01:33:16.486Z,20.41
2017-03-22T01:34:26.430Z,20.41
2017-03-22T01:35:36.371Z,20.36
2017-03-22T01:36:46.621Z,20.38
2017-03-22T01:37:56.561Z,20.41
2017-03-22T01:39:06.831Z,20.39
2017-03-22T01:40:16.781Z,20.48
2017-03-22T01:41:27.037Z,20.36
2017-03-22T01:42:36.982Z,20.36
2017-03-22T01:43:47.248Z,20.38
2017-03-22T01:44:57.512Z,20.41
2017-03-22T01:46:07.453Z,20.39
2017-03-22T01:47:17.391Z,20.47
2017-03-22T01:48:27.026Z,20.42
2017-03-22T01:49:37.025Z,20.43
2017-03-22T01:50:46.965Z,20.39
2017-03-22T01:51:56.910Z,20.38
2017-03-22T01:53:07.217Z,20.38
2017-03-22T01:54:17.482Z,20.42
2017-03-22T01:55:27.431Z,20.33
2017-03-22T01:56:37.711Z,20.39
2017-03-22T01:57:47.973Z,20.38
2017-03-22T01:58:57.922Z,20.38
2017-03-22T02:00:08.174Z,20.38
2017-03-22T02:01:18.126Z,20.32
2017-03-22T02:02:28.375Z,20.39
2017-03-22T02:03:38.640Z,20.39
2017-03-22T02:04:48.901Z,20.33
2017-03-22T02:05:58.540Z,20.29
2017-03-22T02:07:08.497Z,20.38
2017-03-22T02:08:18.440Z,20.32
2017-03-22T02:09:28.696Z,20.29
2017-03-22T02:10:38.324Z,20.29
2017-03-22T02:11:48.267Z,20.33
2017-03-22T02:12:58.529Z,20.29
2017-03-22T02:14:08.172Z,20.36
2017-03-22T02:15:18.115Z,20.33
2017-03-22T02:16:28.369Z,20.33
2017-03-22T02:17:38.631Z,20.32
2017-03-22T02:18:48.263Z,20.26
2017-03-22T02:19:58.209Z,20.33
2017-03-22T02:21:08.165Z,20.31
2017-03-22T02:22:18.424Z,20.31
2017-03-22T02:23:28.373Z,20.32
2017-03-22T02:24:38.637Z,20.35
2017-03-22T02:25:48.891Z,20.35
2017-03-22T02:26:59.145Z,20.31
2017-03-22T02:28:09.110Z,20.31
2017-03-22T02:29:19.370Z,20.36
2017-03-22T02:30:29.638Z,20.33
2017-03-22T02:31:39.580Z,20.32
2017-03-22T02:32:49.852Z,20.35
2017-03-22T02:34:00.110Z,20.32
2017-03-22T02:35:10.062Z,20.36
2017-03-22T02:36:19.684Z,20.35
2017-03-22T02:37:29.309Z,20.32
2017-03-22T02:38:38.943Z,20.32
2017-03-22T02:39:49.200Z,20.32
2017-03-22T02:40:59.143Z,20.32
2017-03-22T02:42:09.399Z,20.31
2017-03-22T02:43:19.026Z,20.38
2017-03-22T02:44:28.975Z,20.35
2017-03-22T02:45:39.234Z,20.29
2017-03-22T02:46:49.177Z,20.33
2017-03-22T02:47:59.124Z,20.35
2017-03-22T02:49:09.389Z,20.35
2017-03-22T02:50:19.649Z,20.35
2017-03-22T02:51:29.586Z,20.29
2017-03-22T02:52:39.840Z,20.28
2017-03-22T02:53:50.101Z,20.35
2017-03-22T02:55:00.049Z,20.35
2017-03-22T02:56:09.995Z,20.33
2017-03-22T02:57:19.937Z,20.33
2017-03-22T02:58:29.566Z,20.31
2017-03-22T02:59:39.825Z,20.32
2017-03-22T03:00:49.770Z,20.28
2017-03-22T03:01:59.708Z,20.32
2017-03-22T03:03:09.963Z,20.35
2017-03-22T03:04:19.914Z,20.31
2017-03-22T03:05:30.173Z,20.33
2017-03-22T03:06:40.430Z,20.32
2017-03-22T03:07:50.380Z,20.29
2017-03-22T03:09:00.643Z,20.35
2017-03-22T03:10:10.273Z,20.33
2017-03-22T03:11:19.906Z,20.33
2017-03-22T03:12:30.166Z,20.35
2017-03-22T03:13:40.107Z,20.39
2017-03-22T03:14:50.365Z,20.33
2017-03-22T03:16:00.310Z,20.29
2017-03-22T03:17:10.250Z,20.36
2017-03-22T03:18:20.192Z,20.29
2017-03-22T03:19:29.826Z,20.33
2017-03-22T03:20:39.773Z,20.33
2017-03-22T03:21:49.712Z,20.28
2017-03-22T03:22:59.662Z,20.35
2017-03-22T03:24:09.918Z,20.28
2017-03-22T03:25:19.865Z,20.31
2017-03-22T03:26:29.803Z,20.24
2017-03-22T03:27:39.747Z,20.24
2017-03-22T03:28:50.006Z,20.28
2017-03-22T03:30:00.267Z,20.26
2017-03-22T03:31:10.528Z,20.24
2017-03-22T03:32:20.471Z,20.26
2017-03-22T03:33:30.732Z,20.16
2017-03-22T03:34:40.992Z,20.29
2017-03-22T03:35:50.947Z,20.17
2017-03-22T03:37:01.222Z,20.14
2017-03-22T03:38:11.474Z,20.17
2017-03-22T03:39:21.419Z,20.14
2017-03-22T03:40:31.685Z,20.14
2017-03-22T03:41:41.331Z,20.13
2017-03-22T03:42:51.610Z,20.11
2017-03-22T03:44:01.870Z,20.11
2017-03-22T03:45:11.812Z,20.17
2017-03-22T03:46:21.436Z,20.13
2017-03-22T03:47:31.404Z,20.17
2017-03-22T03:48:41.354Z,20.18
2017-03-22T03:49:50.982Z,20.17
2017-03-22T03:51:01.233Z,20.2
2017-03-22T03:52:11.173Z,20.23
2017-03-22T03:53:21.117Z,20.18
2017-03-22T03:54:31.062Z,20.18
2017-03-22T03:55:41.316Z,20.17
2017-03-22T03:56:51.573Z,20.17
2017-03-22T03:58:01.843Z,20.17
2017-03-22T03:59:11.789Z,20.16
2017-03-22T04:00:21.422Z,20.17
2017-03-22T04:01:31.359Z,20.21
2017-03-22T04:02:41.617Z,20.13
2017-03-22T04:03:51.879Z,20.13
2017-03-22T04:05:01.823Z,20.13
2017-03-22T04:06:11.447Z,20.14
2017-03-22T04:07:21.709Z,20.14
2017-03-22T04:08:31.967Z,20.26
2017-03-22T04:09:41.915Z,20.35
2017-03-22T04:10:52.175Z,20.32
2017-03-22T04:12:02.433Z,20.36
2017-03-22T04:13:12.691Z,20.32
2017-03-22T04:14:22.647Z,20.32
2017-03-22T04:15:32.593Z,20.29
2017-03-22T04:16:42.229Z,20.28
2017-03-22T04:17:52.526Z,20.36
2017-03-22T04:19:02.482Z,20.33
2017-03-22T04:20:12.765Z,20.35
2017-03-22T04:21:23.014Z,20.39
2017-03-22T04:22:32.951Z,20.38
2017-03-22T04:23:42.590Z,20.32
2017-03-22T04:24:52.533Z,20.32
2017-03-22T04:26:02.796Z,20.36
2017-03-22T04:27:12.425Z,20.33
2017-03-22T04:28:22.681Z,20.32
2017-03-22T04:29:32.625Z,20.39
2017-03-22T04:30:42.251Z,20.35
2017-03-22T04:31:51.872Z,20.36
2017-03-22T04:33:01.818Z,20.33
2017-03-22T04:34:11.769Z,20.32
2017-03-22T04:35:21.716Z,20.33
2017-03-22T04:36:31.345Z,20.26
2017-03-22T04:37:41.604Z,20.38
2017-03-22T04:38:51.235Z,20.31
2017-03-22T04:40:01.495Z,20.33
2017-03-22T04:41:11.748Z,20.29
2017-03-22T04:42:22.003Z,20.41
2017-03-22T04:43:32.265Z,20.38
2017-03-22T04:44:42.209Z,20.35
2017-03-22T04:45:52.467Z,20.33
2017-03-22T04:47:02.714Z,20.31
2017-03-22T04:48:12.970Z,20.28
2017-03-22T04:49:23.232Z,20.31
2017-03-22T04:50:33.175Z,20.32
2017-03-22T04:51:43.435Z,20.35
2017-03-22T04:52:53.403Z,20.31
2017-03-22T04:54:03.679Z,20.33
2017-03-22T04:55:13.934Z,20.33
2017-03-22T04:56:23.564Z,20.35
2017-03-22T04:57:33.830Z,20.33
2017-03-22T04:58:43.779Z,20.36
2017-03-22T04:59:53.768Z,20.31
2017-03-22T05:01:03.712Z,20.29
2017-03-22T05:02:13.964Z,20.35
2017-03-22T05:03:23.918Z,20.35
2017-03-22T05:04:34.177Z,20.32
2017-03-22T05:05:44.428Z,20.31
2017-03-22T05:06:54.732Z,20.29
2017-03-22T05:08:04.682Z,20.32
2017-03-22T05:09:14.944Z,20.28
2017-03-22T05:10:25.199Z,20.33
2017-03-22T05:11:34.832Z,20.29
2017-03-22T05:12:45.089Z,20.28
2017-03-22T05:13:55.355Z,20.28
2017-03-22T05:15:05.299Z,20.28
2017-03-22T05:16:15.551Z,20.31
2017-03-22T05:17:25.817Z,20.31
2017-03-22T05:18:36.077Z,20.32
2017-03-22T05:19:46.337Z,20.32
2017-03-22T05:20:56.595Z,20.31
2017-03-22T05:22:06.533Z,20.31
2017-03-22T05:23:16.789Z,20.35
2017-03-22T05:24:27.093Z,20.31
2017-03-22T05:25:37.353Z,20.35
2017-03-22T05:26:46.982Z,20.38
2017-03-22T05:27:56.926Z,20.33
2017-03-22T05:29:07.199Z,20.32
2017-03-22T05:30:17.477Z,20.33
2017-03-22T05:31:27.103Z,20.31
2017-03-22T05:32:37.048Z,20.36
2017-03-22T05:33:47.308Z,20.32
2017-03-22T05:34:57.256Z,20.32
2017-03-22T05:36:06.575Z,20.29
2017-03-22T05:37:16.516Z,20.32
2017-03-22T05:38:26.156Z,20.35
2017-03-22T05:39:35.791Z,20.36
2017-03-22T05:40:45.424Z,20.32
2017-03-22T05:41:55.675Z,20.35
2017-03-22T05:43:05.933Z,20.32
2017-03-22T05:44:15.249Z,20.32
2017-03-22T05:45:25.192Z,20.29
2017-03-22T05:46:35.170Z,20.35
2017-03-22T05:47:44.799Z,20.28
2017-03-22T05:48:54.747Z,20.28
2017-03-22T05:50:04.704Z,20.32
2017-03-22T05:51:14.964Z,20.33
2017-03-22T05:52:25.221Z,20.39
2017-03-22T05:53:35.166Z,20.48
2017-03-22T05:54:45.116Z,20.52
2017-03-22T05:55:55.376Z,20.42
2017-03-22T05:57:05.004Z,20.51
2017-03-22T05:58:14.946Z,20.5
2017-03-22T05:59:25.225Z,20.51
2017-03-22T06:00:35.482Z,20.33
2017-03-22T06:01:45.420Z,20.35
2017-03-22T06:02:55.362Z,20.31
2017-03-22T06:04:05.310Z,20.24
2017-03-22T06:05:14.638Z,20.31
2017-03-22T06:06:24.580Z,20.29
2017-03-22T06:07:34.535Z,20.2
2017-03-22T06:08:44.494Z,20.24
2017-03-22T06:09:54.441Z,20.21
2017-03-22T06:11:04.383Z,20.26
2017-03-22T06:12:14.639Z,20.28
2017-03-22T06:13:24.897Z,20.32
2017-03-22T06:14:34.566Z,20.35
2017-03-22T06:15:44.828Z,20.24
2017-03-22T06:16:55.083Z,20.17
2017-03-22T06:18:05.339Z,20.17
2017-03-22T06:19:14.966Z,20.18
2017-03-22T06:20:24.906Z,20.18
2017-03-22T06:21:34.539Z,20.17
2017-03-22T06:22:44.165Z,20.13
2017-03-22T06:23:54.117Z,20.18
2017-03-22T06:25:04.377Z,20.16
2017-03-22T06:26:14.326Z,20.17
2017-03-22T06:27:24.302Z,20.18
2017-03-22T06:28:34.242Z,20.14
2017-03-22T06:29:43.873Z,20.16
2017-03-22T06:30:52.876Z,20.17
2017-03-22T06:32:03.143Z,20.14
2017-03-22T06:33:12.801Z,20.13
2017-03-22T06:34:22.434Z,20.18
2017-03-22T06:35:32.378Z,20.16
2017-03-22T06:36:42.644Z,20.1
2017-03-22T06:37:52.944Z,20.16
2017-03-22T06:39:03.206Z,20.13
2017-03-22T06:40:13.469Z,20.13
2017-03-22T06:41:23.412Z,20.14
2017-03-22T06:42:33.360Z,20.03
2017-03-22T06:43:43.308Z,20.11
2017-03-22T06:44:53.565Z,20.11
2017-03-22T06:46:03.817Z,20.02
2017-03-22T06:47:13.761Z,20.02
2017-03-22T06:48:23.390Z,20.11
2017-03-22T06:49:33.652Z,20.06
2017-03-22T06:50:43.910Z,20.14
2017-03-22T06:51:53.877Z,20.11
2017-03-22T06:53:04.134Z,20.2
2017-03-22T06:54:14.397Z,20.05
2017-03-22T06:55:24.340Z,20.13
2017-03-22T06:56:34.590Z,20.17
2017-03-22T06:57:44.220Z,20.18
2017-03-22T06:58:54.483Z,20.14
2017-03-22T07:00:04.748Z,20.16
2017-03-22T07:01:14.688Z,20.14
2017-03-22T07:02:24.317Z,20.13
2017-03-22T07:03:34.574Z,20.17
2017-03-22T07:04:44.525Z,20.17
2017-03-22T07:05:54.466Z,20.31
2017-03-22T07:07:04.719Z,20.21
2017-03-22T07:08:14.978Z,20.21
2017-03-22T07:09:25.242Z,20.2
2017-03-22T07:10:35.501Z,20.21
2017-03-22T07:11:44.822Z,20.11
2017-03-22T07:12:55.072Z,20.24
2017-03-22T07:14:05.021Z,20.26
2017-03-22T07:15:14.965Z,20.21
2017-03-22T07:16:24.906Z,20.2
2017-03-22T07:17:35.163Z,20.28
2017-03-22T07:18:44.490Z,20.29
2017-03-22T07:19:54.752Z,20.16
2017-03-22T07:21:04.381Z,20.26
2017-03-22T07:22:14.640Z,20.23
2017-03-22T07:23:24.908Z,20.29
2017-03-22T07:24:34.872Z,20.24
2017-03-22T07:25:45.157Z,20.26
2017-03-22T07:26:55.412Z,20.24
2017-03-22T07:28:05.063Z,20.24
2017-03-22T07:29:14.688Z,20.14
2017-03-22T07:30:24.942Z,20.2
2017-03-22T07:31:34.262Z,20.11
2017-03-22T07:32:44.520Z,20.17
2017-03-22T07:33:54.782Z,20.18
2017-03-22T07:35:04.724Z,20.11
2017-03-22T07:36:14.664Z,20.24
2017-03-22T07:37:24.925Z,20.1
2017-03-22T07:38:34.877Z,20.26
2017-03-22T07:39:44.823Z,20.32
2017-03-22T07:40:55.081Z,20.33
2017-03-22T07:42:05.059Z,20.31
2017-03-22T07:43:14.695Z,20.33
2017-03-22T07:44:24.329Z,20.29
2017-03-22T07:45:34.589Z,20.31
2017-03-22T07:46:44.219Z,20.32
2017-03-22T07:47:54.165Z,20.35
2017-03-22T07:49:04.114Z,20.29
2017-03-22T07:50:14.373Z,20.28
2017-03-22T07:51:24.314Z,20.35
2017-03-22T07:52:33.939Z,20.35
2017-03-22T07:53:44.213Z,20.32
2017-03-22T07:54:54.166Z,20.32
2017-03-22T07:56:04.435Z,20.29
2017-03-22T07:57:14.378Z,20.29
2017-03-22T07:58:24.381Z,20.33
2017-03-22T07:59:34.329Z,20.32
2017-03-22T08:00:44.582Z,20.31
2017-03-22T08:01:54.837Z,20.32
2017-03-22T08:03:05.092Z,20.36
2017-03-22T08:04:15.042Z,20.38
2017-03-22T08:05:25.000Z,20.39
2017-03-22T08:06:35.256Z,20.48
2017-03-22T08:07:45.519Z,20.5
2017-03-22T08:08:55.788Z,20.38
2017-03-22T08:10:06.060Z,19.68
2017-03-22T08:11:15.709Z,18.78
2017-03-22T08:12:25.974Z,18.17
2017-03-22T08:13:36.250Z,18.12
2017-03-22T08:14:46.507Z,17.84
2017-03-22T08:15:56.761Z,17.43
2017-03-22T08:17:06.393Z,17.23
2017-03-22T08:18:16.341Z,17.06
2017-03-22T08:19:26.603Z,17.12
2017-03-22T08:20:36.862Z,17.01
2017-03-22T08:21:47.114Z,17.14
2017-03-22T08:22:57.368Z,17.19
2017-03-22T08:24:07.006Z,17.38
2017-03-22T08:25:16.632Z,17.49
2017-03-22T08:26:26.885Z,17.48
2017-03-22T08:27:36.828Z,17.23
2017-03-22T08:28:46.774Z,17.36
2017-03-22T08:29:56.092Z,17.44
2017-03-22T08:31:06.042Z,17.28
2017-03-22T08:32:16.287Z,17.16
2017-03-22T08:33:25.911Z,17.11
2017-03-22T08:34:36.168Z,17.21
2017-03-22T08:35:46.106Z,17.18
2017-03-22T08:36:55.776Z,17.26
2017-03-22T08:38:05.720Z,17.15
2017-03-22T08:39:15.662Z,17.25
2017-03-22T08:40:25.600Z,17.3
2017-03-22T08:41:35.851Z,17.68
2017-03-22T08:42:45.158Z,17.99
2017-03-22T08:43:55.098Z,18.45
2017-03-22T08:45:05.040Z,18.67
2017-03-22T08:46:14.982Z,18.9
2017-03-22T08:47:25.232Z,18.9
2017-03-22T08:48:35.480Z,18.98
2017-03-22T08:49:45.434Z,19
2017-03-22T08:50:55.693Z,19.19
2017-03-22T08:52:05.642Z,19.22
2017-03-22T08:53:15.905Z,19.18
2017-03-22T08:54:26.166Z,19.29
2017-03-22T08:55:36.104Z,19.33
2017-03-22T08:56:46.354Z,19.29
2017-03-22T08:57:56.300Z,19.46
2017-03-22T08:59:06.664Z,19.55
2017-03-22T09:00:16.913Z,19.61
2017-03-22T09:01:27.163Z,19.71
2017-03-22T09:02:37.100Z,19.71
2017-03-22T09:03:47.355Z,19.77
2017-03-22T09:04:57.614Z,19.84
2017-03-22T09:06:07.558Z,19.86
2017-03-22T09:07:17.184Z,19.84
2017-03-22T09:08:27.438Z,19.86
2017-03-22T09:09:37.696Z,19.88
2017-03-22T09:10:47.634Z,19.94
2017-03-22T09:11:57.886Z,19.94
2017-03-22T09:13:07.511Z,19.92
2017-03-22T09:14:17.453Z,19.98
2017-03-22T09:15:27.706Z,19.96
2017-03-22T09:16:37.652Z,19.99
2017-03-22T09:17:47.592Z,19.95
2017-03-22T09:18:57.529Z,20.08
2017-03-22T09:20:07.469Z,20.08
2017-03-22T09:21:17.412Z,20.18
2017-03-22T09:22:27.670Z,20.14
2017-03-22T09:23:37.605Z,20.17
2017-03-22T09:24:47.544Z,20.14
2017-03-22T09:25:57.797Z,20.16
2017-03-22T09:27:07.421Z,20.16
2017-03-22T09:28:17.364Z,20.2
2017-03-22T09:29:27.307Z,20.2
2017-03-22T09:30:37.555Z,20.24
2017-03-22T09:31:47.491Z,20.11
2017-03-22T09:32:56.806Z,20.17
2017-03-22T09:34:06.744Z,20.2
2017-03-22T09:35:16.683Z,20.17
2017-03-22T09:36:26.627Z,20.17
2017-03-22T09:37:36.881Z,20.17
2017-03-22T09:38:46.505Z,20.14
2017-03-22T09:39:56.134Z,20.26
2017-03-22T09:41:06.385Z,20.29
2017-03-22T09:42:16.014Z,20.28
2017-03-22T09:43:25.955Z,20.29
2017-03-22T09:44:35.892Z,20.32
2017-03-22T09:45:45.518Z,20.35
2017-03-22T09:46:55.493Z,20.33
2017-03-22T09:48:05.444Z,20.38
2017-03-22T09:49:15.408Z,20.33
2017-03-22T09:50:25.658Z,20.35
2017-03-22T09:51:35.599Z,20.32
2017-03-22T09:52:45.850Z,20.36
2017-03-22T09:53:56.103Z,20.29
2017-03-22T09:55:06.040Z,20.38
2017-03-22T09:56:15.981Z,20.35
2017-03-22T09:57:25.608Z,20.36
2017-03-22T09:58:35.543Z,20.39
2017-03-22T09:59:45.795Z,20.38
2017-03-22T10:00:55.419Z,20.39
2017-03-22T10:02:05.668Z,20.35
2017-03-22T10:03:15.629Z,20.38
2017-03-22T10:04:24.945Z,20.39
2017-03-22T10:05:35.202Z,20.38
2017-03-22T10:06:44.829Z,20.43
2017-03-22T10:07:55.082Z,20.42
2017-03-22T10:09:05.331Z,20.43
2017-03-22T10:10:14.957Z,20.48
2017-03-22T10:11:24.935Z,20.48
2017-03-22T10:12:34.872Z,20.43
2017-03-22T10:13:44.813Z,20.47
2017-03-22T10:14:54.452Z,20.41
2017-03-22T10:16:04.389Z,20.43
2017-03-22T10:17:14.323Z,20.48
2017-03-22T10:18:23.944Z,20.48
2017-03-22T10:19:33.566Z,20.47
2017-03-22T10:20:43.820Z,20.5
2017-03-22T10:21:54.083Z,20.47
2017-03-22T10:23:03.708Z,20.51
2017-03-22T10:24:13.966Z,20.48
2017-03-22T10:25:24.223Z,20.41
2017-03-22T10:26:33.537Z,20.41
2017-03-22T10:27:43.477Z,20.48
2017-03-22T10:28:53.425Z,20.51
2017-03-22T10:30:03.367Z,20.52
2017-03-22T10:31:13.311Z,20.47
2017-03-22T10:32:23.565Z,20.43
2017-03-22T10:33:33.815Z,20.51
2017-03-22T10:34:44.064Z,20.5
2017-03-22T10:35:53.999Z,20.54
2017-03-22T10:37:03.934Z,20.47
2017-03-22T10:38:13.869Z,20.52
2017-03-22T10:39:23.808Z,20.5
2017-03-22T10:40:33.747Z,20.43
2017-03-22T10:41:43.996Z,20.55
2017-03-22T10:42:53.941Z,20.51
2017-03-22T10:44:04.197Z,20.54
2017-03-22T10:45:14.450Z,20.54
2017-03-22T10:46:24.070Z,20.42
2017-03-22T10:47:34.324Z,20.48
2017-03-22T10:48:43.636Z,20.48
2017-03-22T10:49:53.893Z,20.54
2017-03-22T10:51:03.828Z,20.51
2017-03-22T10:52:13.138Z,20.55
2017-03-22T10:53:23.078Z,20.52
2017-03-22T10:54:33.334Z,20.43
2017-03-22T10:55:43.271Z,20.54
2017-03-22T10:56:53.526Z,20.55
2017-03-22T10:58:03.154Z,20.59
2017-03-22T10:59:13.416Z,20.58
2017-03-22T11:00:23.355Z,20.58
2017-03-22T11:01:32.981Z,20.61
2017-03-22T11:02:43.230Z,20.54
2017-03-22T11:03:53.484Z,20.59
2017-03-22T11:05:03.110Z,20.61
2017-03-22T11:06:13.358Z,20.54
2017-03-22T11:07:23.297Z,20.62
2017-03-22T11:08:33.549Z,20.62
2017-03-22T11:09:43.799Z,20.66
2017-03-22T11:10:54.050Z,20.57
2017-03-22T11:12:04.303Z,20.61
2017-03-22T11:13:14.239Z,20.58
2017-03-22T11:14:24.177Z,20.62
2017-03-22T11:15:33.811Z,20.59
2017-03-22T11:16:43.769Z,20.64
2017-03-22T11:17:53.399Z,20.61
2017-03-22T11:19:03.021Z,20.54
2017-03-22T11:20:13.285Z,20.58
2017-03-22T11:21:23.544Z,20.62
2017-03-22T11:22:33.807Z,20.58
2017-03-22T11:23:44.056Z,20.66
2017-03-22T11:24:53.993Z,20.58
2017-03-22T11:26:04.243Z,20.62
2017-03-22T11:27:14.184Z,20.62
2017-03-22T11:28:24.438Z,20.62
2017-03-22T11:29:34.705Z,20.61
2017-03-22T11:30:44.639Z,20.67
2017-03-22T11:31:54.580Z,20.57
2017-03-22T11:33:04.549Z,20.66
2017-03-22T11:34:13.550Z,20.59
2017-03-22T11:35:22.860Z,20.67
2017-03-22T11:36:32.170Z,20.66
2017-03-22T11:37:42.112Z,20.61
2017-03-22T11:38:52.365Z,20.59
2017-03-22T11:40:02.617Z,20.58
2017-03-22T11:41:12.871Z,20.58
2017-03-22T11:42:22.813Z,20.61
2017-03-22T11:43:32.438Z,20.62
2017-03-22T11:44:42.062Z,20.61
2017-03-22T11:45:51.998Z,20.62
2017-03-22T11:47:02.259Z,20.66
2017-03-22T11:48:12.206Z,20.67
2017-03-22T11:49:22.145Z,20.64
2017-03-22T11:50:32.396Z,20.66
2017-03-22T11:51:42.022Z,20.57
2017-03-22T11:52:51.651Z,20.64
2017-03-22T11:54:01.274Z,20.67
2017-03-22T11:55:10.901Z,20.61
2017-03-22T11:56:20.842Z,20.66
2017-03-22T11:57:30.779Z,20.62
2017-03-22T11:58:40.718Z,20.61
2017-03-22T11:59:50.667Z,20.66
2017-03-22T12:01:00.605Z,20.58
2017-03-22T12:02:09.923Z,20.59
2017-03-22T12:03:19.864Z,20.66
2017-03-22T12:04:29.798Z,20.66
2017-03-22T12:05:40.050Z,20.62
2017-03-22T12:06:50.300Z,20.58
2017-03-22T12:07:59.922Z,20.58
2017-03-22T12:09:10.173Z,20.67
2017-03-22T12:10:20.424Z,20.61
2017-03-22T12:11:30.392Z,20.62
2017-03-22T12:12:40.020Z,20.59
2017-03-22T12:13:49.650Z,20.58
2017-03-22T12:14:59.590Z,20.59
2017-03-22T12:16:09.213Z,20.57
2017-03-22T12:17:18.845Z,20.61
2017-03-22T12:18:29.098Z,20.66
2017-03-22T12:19:39.349Z,20.57
2017-03-22T12:20:49.600Z,20.62
2017-03-22T12:21:59.261Z,20.64
2017-03-22T12:23:08.885Z,20.7
2017-03-22T12:24:18.507Z,20.72
2017-03-22T12:25:28.757Z,20.59
2017-03-22T12:26:39.010Z,20.57
2017-03-22T12:27:48.640Z,20.72
2017-03-22T12:28:58.581Z,20.61
2017-03-22T12:30:07.897Z,20.74
2017-03-22T12:31:18.149Z,20.74
2017-03-22T12:32:28.398Z,20.72
2017-03-22T12:33:38.655Z,20.74
2017-03-22T12:34:48.594Z,20.74
2017-03-22T12:35:57.908Z,20.67
2017-03-22T12:37:07.843Z,20.7
2017-03-22T12:38:16.839Z,20.72
2017-03-22T12:39:26.812Z,20.72
2017-03-22T12:40:36.763Z,20.72
2017-03-22T12:41:47.016Z,20.72
2017-03-22T12:42:56.641Z,20.72
2017-03-22T12:44:06.594Z,20.73
2017-03-22T12:45:16.858Z,20.7
2017-03-22T12:46:26.794Z,20.73
2017-03-22T12:47:36.454Z,20.74
2017-03-22T12:48:46.712Z,20.73
2017-03-22T12:49:56.654Z,20.7
2017-03-22T12:51:06.599Z,20.77
2017-03-22T12:52:16.540Z,20.67
2017-03-22T12:53:26.474Z,20.73
2017-03-22T12:54:36.730Z,20.73
2017-03-22T12:55:46.355Z,20.74
2017-03-22T12:56:56.291Z,20.74
2017-03-22T12:58:06.231Z,20.61
2017-03-22T12:59:16.167Z,20.77
2017-03-22T13:00:26.418Z,20.7
2017-03-22T13:01:36.673Z,20.73
2017-03-22T13:02:46.926Z,20.69
2017-03-22T13:03:57.179Z,20.76
2017-03-22T13:05:07.430Z,20.79
2017-03-22T13:06:17.054Z,20.73
2017-03-22T13:07:27.311Z,20.74
2017-03-22T13:08:37.567Z,20.72
2017-03-22T13:09:47.818Z,20.76
2017-03-22T13:10:57.755Z,20.72
2017-03-22T13:12:07.733Z,20.73
2017-03-22T13:13:17.357Z,20.76
2017-03-22T13:14:27.614Z,20.73
2017-03-22T13:15:37.253Z,20.73
2017-03-22T13:16:47.194Z,20.61
2017-03-22T13:17:57.447Z,20.69
2017-03-22T13:19:07.390Z,20.74
2017-03-22T13:20:17.336Z,20.72
2017-03-22T13:21:27.280Z,20.72
2017-03-22T13:22:37.534Z,20.72
2017-03-22T13:23:47.475Z,20.76
2017-03-22T13:24:57.732Z,20.76
2017-03-22T13:26:07.046Z,20.74
2017-03-22T13:27:17.338Z,20.73
2017-03-22T13:28:27.595Z,20.72
2017-03-22T13:29:37.224Z,20.73
2017-03-22T13:30:47.482Z,20.72
2017-03-22T13:31:57.109Z,20.74
2017-03-22T13:33:07.051Z,20.73
2017-03-22T13:34:16.685Z,20.62
2017-03-22T13:35:26.946Z,20.79
2017-03-22T13:36:36.890Z,20.72
2017-03-22T13:37:47.144Z,20.77
2017-03-22T13:38:57.085Z,20.74
2017-03-22T13:40:07.338Z,20.7
2017-03-22T13:41:16.965Z,20.74
2017-03-22T13:42:26.905Z,20.74
2017-03-22T13:43:37.163Z,20.72
2017-03-22T13:44:46.789Z,20.77
2017-03-22T13:45:57.044Z,20.72
2017-03-22T13:47:06.982Z,20.76
2017-03-22T13:48:16.921Z,20.73
2017-03-22T13:49:26.546Z,20.72
2017-03-22T13:50:36.492Z,20.77
2017-03-22T13:51:46.120Z,20.77
2017-03-22T13:52:56.380Z,20.76
2017-03-22T13:54:06.346Z,20.76
2017-03-22T13:55:16.292Z,20.76
2017-03-22T13:56:26.233Z,20.77
2017-03-22T13:57:36.185Z,20.72
2017-03-22T13:58:46.121Z,20.77
2017-03-22T13:59:56.061Z,20.76
2017-03-22T14:01:06.023Z,20.77
2017-03-22T14:02:16.280Z,20.77
2017-03-22T14:03:26.535Z,20.77
2017-03-22T14:04:36.516Z,20.7
2017-03-22T14:05:46.773Z,20.72
2017-03-22T14:06:57.026Z,20.77
2017-03-22T14:08:06.661Z,20.76
2017-03-22T14:09:16.290Z,20.79
2017-03-22T14:10:25.919Z,20.8
2017-03-22T14:11:35.887Z,20.79
2017-03-22T14:12:46.146Z,20.76
2017-03-22T14:13:56.084Z,20.79
2017-03-22T14:15:06.028Z,20.84
2017-03-22T14:16:15.973Z,20.77
2017-03-22T14:17:25.919Z,20.64
2017-03-22T14:18:35.862Z,20.79
2017-03-22T14:19:45.799Z,20.74
2017-03-22T14:20:56.050Z,20.7
2017-03-22T14:22:05.363Z,20.82
2017-03-22T14:23:14.673Z,20.76
2017-03-22T14:24:24.311Z,20.82
2017-03-22T14:25:34.248Z,20.67
2017-03-22T14:26:44.184Z,20.76
2017-03-22T14:27:54.122Z,20.76
2017-03-22T14:29:03.434Z,20.7
2017-03-22T14:30:13.381Z,20.66
2017-03-22T14:31:23.002Z,20.79
2017-03-22T14:32:33.259Z,20.77
2017-03-22T14:33:42.891Z,20.77
2017-03-22T14:34:52.854Z,20.67
2017-03-22T14:36:03.114Z,20.77
2017-03-22T14:37:13.052Z,20.76
2017-03-22T14:38:22.672Z,20.76
2017-03-22T14:39:32.613Z,20.79
2017-03-22T14:40:42.565Z,20.79
2017-03-22T14:41:52.833Z,20.82
2017-03-22T14:43:03.089Z,20.76
2017-03-22T14:44:12.710Z,20.77
2017-03-22T14:45:22.646Z,20.79
2017-03-22T14:46:32.270Z,20.79
2017-03-22T14:47:42.521Z,20.8
2017-03-22T14:48:52.142Z,20.77
2017-03-22T14:50:01.765Z,20.77
2017-03-22T14:51:11.398Z,20.76
2017-03-22T14:52:21.026Z,20.76
2017-03-22T14:53:31.287Z,20.77
2017-03-22T14:54:40.921Z,20.74
2017-03-22T14:55:51.181Z,20.77
2017-03-22T14:57:01.129Z,20.79
2017-03-22T14:58:11.080Z,20.73
2017-03-22T14:59:21.062Z,20.82
2017-03-22T15:00:31.315Z,20.77
2017-03-22T15:01:41.266Z,20.79
2017-03-22T15:02:51.527Z,20.74
2017-03-22T15:04:00.539Z,20.73